Time;durP1;ratioP1;P1;durP2;ratioP2;P2;SDS_P1;SDS_P2;PMS_P1;PMS_P2;Temp;Humidity;BMP_temperature;BMP_pressure;BME280_temperature;BME280_humidity;BME280_pressure;Samples;Min_cycle;Max_cycle;Signal;HPM_P1;HPM_P2
2023/03/23 00:02:15;;;;;;;5.20;2.60;;;;;;;13.13;75.14;100034.41;3608253;39;20047;-67
2023/03/23 00:04:42;;;;;;;3.63;2.25;;;;;;;13.14;75.38;100025.34;3612008;39;20066;-67
2023/03/23 00:07:08;;;;;;;4.68;2.92;;;;;;;13.17;75.30;100017.00;3614784;39;20058;-68
2023/03/23 00:09:34;;;;;;;5.07;2.70;;;;;;;13.16;75.28;100007.16;3612575;39;20046;-67
2023/03/23 00:12:05;;;;;;;4.90;2.90;;;;;;;13.15;75.22;100000.06;3621295;39;20054;-67
2023/03/23 00:14:41;;;;;;;3.75;2.55;;;;;;;13.18;74.85;100013.28;3614448;39;20047;-67
2023/03/23 00:17:14;;;;;;;3.63;2.60;;;;;;;13.17;75.06;100031.34;3611334;39;20051;-67
2023/03/23 00:19:45;;;;;;;3.45;2.50;;;;;;;13.27;74.78;100027.88;3612733;39;20409;-67
2023/03/23 00:22:14;;;;;;;2.85;2.50;;;;;;;13.00;74.94;99964.44;3612210;39;20066;-67
2023/03/23 00:24:40;;;;;;;3.17;2.88;;;;;;;13.27;74.90;99998.19;3612524;39;20088;-67
2023/03/23 00:27:06;;;;;;;3.65;2.80;;;;;;;13.23;74.72;100011.91;3614128;39;20098;-68
2023/03/23 00:29:32;;;;;;;3.40;2.70;;;;;;;13.27;75.06;100026.03;3612937;39;20054;-67
2023/03/23 00:31:57;;;;;;;4.53;2.88;;;;;;;13.24;74.95;100024.44;3613962;39;20063;-68
2023/03/23 00:34:24;;;;;;;3.30;2.70;;;;;;;13.19;74.82;100010.47;3610462;39;20293;-68
2023/03/23 00:36:56;;;;;;;5.35;3.28;;;;;;;13.29;75.19;100025.88;3601395;39;20051;-68
2023/03/23 00:39:26;;;;;;;4.72;4.13;;;;;;;13.24;75.08;100032.53;3610650;39;21592;-68
2023/03/23 00:42:00;;;;;;;5.00;2.88;;;;;;;13.26;75.11;100020.75;3611090;39;20043;-66
2023/03/23 00:44:31;;;;;;;5.20;2.80;;;;;;;13.21;75.07;100011.19;3612363;39;20056;-67
2023/03/23 00:46:58;;;;;;;6.50;3.10;;;;;;;13.30;75.04;100022.22;3617208;39;20065;-68
2023/03/23 00:49:26;;;;;;;4.55;2.95;;;;;;;13.20;75.15;99987.03;3615849;39;20057;-67
2023/03/23 00:51:54;;;;;;;5.60;3.20;;;;;;;13.30;75.55;100003.31;3611098;39;20073;-67
2023/03/23 00:54:21;;;;;;;5.15;2.90;;;;;;;13.28;75.86;100006.16;3609261;39;20053;-68
2023/03/23 00:56:47;;;;;;;4.35;2.90;;;;;;;13.13;76.00;99978.63;3613059;39;20151;-66
2023/03/23 00:59:13;;;;;;;3.53;3.00;;;;;;;13.27;76.52;100009.00;3614248;39;20381;-67
2023/03/23 01:01:39;;;;;;;3.65;2.70;;;;;;;13.24;76.51;100015.47;3609654;39;20059;-66
2023/03/23 01:04:06;;;;;;;3.75;3.10;;;;;;;13.19;77.43;99990.72;3611128;39;20123;-67
2023/03/23 01:06:38;;;;;;;5.55;3.45;;;;;;;13.20;77.35;99984.34;3614866;39;20051;-67
2023/03/23 01:09:09;;;;;;;7.55;3.05;;;;;;;13.17;77.54;99982.75;3615202;39;20054;-67
2023/03/23 01:11:35;;;;;;;4.25;2.90;;;;;;;13.13;77.63;99988.53;3607670;39;20397;-67
2023/03/23 01:14:01;;;;;;;6.38;3.30;;;;;;;13.06;77.63;99968.47;3610697;39;20054;-67
2023/03/23 01:16:27;;;;;;;5.10;3.10;;;;;;;13.12;77.01;99952.59;3610852;39;20060;-67
2023/03/23 01:18:54;;;;;;;4.40;3.15;;;;;;;13.12;77.26;99951.75;3612566;39;20346;-66
2023/03/23 01:21:21;;;;;;;3.67;2.88;;;;;;;13.14;77.25;99961.44;3615171;39;20057;-66
2023/03/23 01:23:47;;;;;;;3.10;2.80;;;;;;;13.09;76.81;99939.38;3612474;39;20058;-67
2023/03/23 01:26:21;;;;;;;3.08;2.70;;;;;;;13.17;76.91;99955.78;3608952;39;20059;-67
2023/03/23 01:28:48;;;;;;;4.15;2.90;;;;;;;13.21;76.55;99956.34;3609206;39;20091;-67
2023/03/23 01:31:19;;;;;;;2.50;2.30;;;;;;;13.20;76.60;99955.50;3608684;39;20773;-67
2023/03/23 01:33:46;;;;;;;4.38;2.92;;;;;;;13.20;76.40;99943.88;3612055;39;20379;-67
2023/03/23 01:36:16;;;;;;;6.00;3.13;;;;;;;13.23;76.50;99949.00;3611210;39;20137;-67
2023/03/23 01:38:46;;;;;;;4.40;3.00;;;;;;;13.23;76.50;99963.34;3599978;39;20055;-67
2023/03/23 01:41:15;;;;;;;5.15;3.10;;;;;;;13.23;76.77;99955.25;3610008;39;20281;-67
2023/03/23 01:44:06;;;;;;;4.40;2.85;;;;;;;13.24;76.15;99954.28;3612817;39;20093;-66
2023/03/23 01:46:35;;;;;;;4.78;3.20;;;;;;;13.26;76.19;99954.16;3610578;39;20074;-67
2023/03/23 01:49:22;;;;;;;3.30;2.95;;;;;;;13.29;75.72;99963.81;3604780;39;20108;-67
2023/03/23 01:52:00;;;;;;;4.32;3.35;;;;;;;13.32;75.85;99960.84;3610555;39;20108;-67
2023/03/23 01:54:29;;;;;;;3.60;3.05;;;;;;;13.34;75.82;99956.19;3611596;39;20127;-67
2023/03/23 01:57:13;;;;;;;3.38;2.95;;;;;;;13.36;75.33;99952.38;3609931;39;20062;-67
2023/03/23 01:59:45;;;;;;;5.28;3.20;;;;;;;13.44;75.02;99940.88;3609218;39;20124;-67
2023/03/23 02:02:12;;;;;;;3.55;3.10;;;;;;;13.43;74.90;99941.88;3609526;39;20289;-67
2023/03/23 02:04:41;;;;;;;4.03;3.03;;;;;;;13.46;74.62;99934.34;3610962;39;20067;-67
2023/03/23 02:07:08;;;;;;;4.63;2.90;;;;;;;13.49;74.83;99921.59;3606249;39;20055;-67
2023/03/23 02:09:34;;;;;;;4.05;2.92;;;;;;;13.43;74.59;99920.28;3609388;39;20051;-68
2023/03/23 02:12:01;;;;;;;4.78;3.30;;;;;;;13.45;74.77;99921.84;3607741;39;20091;-68
2023/03/23 02:14:30;;;;;;;3.40;2.80;;;;;;;13.51;74.50;99917.78;3607541;39;20110;-68
2023/03/23 02:17:32;;;;;;;3.25;2.63;;;;;;;13.50;74.41;99915.19;3607750;39;20172;-67
2023/03/23 02:20:39;;;;;;;5.00;2.70;;;;;;;13.53;74.24;99909.53;3609109;39;20055;-67
2023/03/23 02:23:28;;;;;;;3.28;2.78;;;;;;;13.52;74.13;99910.53;3608729;39;20317;-67
2023/03/23 02:26:21;;;;;;;4.07;3.17;;;;;;;13.52;73.65;99908.66;3608683;39;20477;-67
2023/03/23 02:29:13;;;;;;;4.30;2.90;;;;;;;13.49;73.48;99911.63;3606877;39;20047;-67
2023/03/23 02:32:05;;;;;;;6.85;2.78;;;;;;;13.48;73.81;99904.53;3606809;39;20546;-67
2023/03/23 02:34:54;;;;;;;5.18;3.00;;;;;;;13.50;73.38;99910.63;3611436;39;20183;-67
2023/03/23 02:37:26;;;;;;;4.30;2.90;;;;;;;13.52;73.16;99895.16;3610520;39;20390;-67
2023/03/23 02:40:09;;;;;;;3.22;2.75;;;;;;;13.53;72.92;99887.91;3611049;39;20054;-67
2023/03/23 02:42:42;;;;;;;2.95;2.65;;;;;;;13.55;73.23;99889.50;3608469;39;20065;-67
2023/03/23 02:45:15;;;;;;;4.47;2.90;;;;;;;13.55;73.04;99899.44;3608603;39;20054;-67
2023/03/23 02:47:43;;;;;;;4.07;2.72;;;;;;;13.57;73.34;99895.59;3609940;39;20132;-68
2023/03/23 02:50:15;;;;;;;3.78;3.17;;;;;;;13.55;73.43;99900.28;3610049;39;20110;-67
2023/03/23 02:52:45;;;;;;;4.38;2.75;;;;;;;13.51;73.21;99887.19;3594320;39;20536;-67
2023/03/23 02:55:14;;;;;;;3.55;2.45;;;;;;;13.49;72.93;99891.88;3610102;39;20050;-68
2023/03/23 02:57:40;;;;;;;3.65;2.80;;;;;;;13.61;73.10;99915.94;3611484;39;21427;-67
2023/03/23 03:00:10;;;;;;;3.00;2.72;;;;;;;13.64;72.95;99910.28;3612270;39;20043;-67
2023/03/23 03:02:52;;;;;;;4.43;2.97;;;;;;;13.68;72.69;99909.00;3606807;39;20457;-67
2023/03/23 03:05:54;;;;;;;3.00;2.50;;;;;;;13.70;72.57;99903.44;3608423;39;20057;-68
2023/03/23 03:08:48;;;;;;;4.28;2.55;;;;;;;13.72;72.53;99906.03;3612311;39;20054;-67
2023/03/23 03:11:22;;;;;;;3.67;2.65;;;;;;;13.72;72.22;99901.47;3612555;39;20445;-68
2023/03/23 03:14:17;;;;;;;3.95;2.75;;;;;;;13.76;72.22;99910.16;3609648;39;20113;-68
2023/03/23 03:17:14;;;;;;;2.75;2.42;;;;;;;13.77;72.19;99917.28;3612091;39;20059;-67
2023/03/23 03:19:54;;;;;;;3.13;2.83;;;;;;;13.79;72.01;99896.38;3612127;39;20070;-67
2023/03/23 03:22:22;;;;;;;3.10;2.80;;;;;;;13.79;71.97;99891.81;3610155;39;20051;-67
2023/03/23 03:24:51;;;;;;;3.10;2.45;;;;;;;13.76;72.08;99913.69;3604679;39;20361;-67
2023/03/23 03:27:20;;;;;;;2.60;2.40;;;;;;;13.77;71.53;99909.19;3609002;39;20055;-68
2023/03/23 03:29:59;;;;;;;3.97;2.90;;;;;;;13.78;71.68;99917.13;3603913;39;20352;-67
2023/03/23 03:32:43;;;;;;;3.40;2.58;;;;;;;13.79;70.87;99902.63;3610471;39;20398;-67
2023/03/23 03:35:10;;;;;;;4.57;2.78;;;;;;;13.80;70.86;99903.50;3611194;39;20043;-67
2023/03/23 03:37:39;;;;;;;3.83;2.50;;;;;;;13.72;70.62;99892.53;3607666;39;20062;-67
2023/03/23 03:40:15;;;;;;;4.45;2.60;;;;;;;13.74;70.93;99891.41;3610758;39;20059;-67
2023/03/23 03:42:44;;;;;;;4.63;2.58;;;;;;;13.79;70.41;99917.97;3612176;39;20059;-67
2023/03/23 03:45:18;;;;;;;4.20;2.38;;;;;;;13.79;70.83;99916.13;3608786;39;20162;-67
2023/03/23 03:47:45;;;;;;;4.35;2.60;;;;;;;13.79;70.56;99907.19;3613742;39;20059;-67
2023/03/23 03:50:11;;;;;;;6.95;2.22;;;;;;;13.50;70.51;99858.50;3614153;39;20051;-67
2023/03/23 03:52:38;;;;;;;5.78;2.33;;;;;;;13.76;69.97;99913.69;3612517;39;20063;-67
2023/03/23 03:55:06;;;;;;;3.33;2.28;;;;;;;13.55;69.78;99869.75;3614964;39;20379;-67
2023/03/23 03:57:33;;;;;;;4.47;2.30;;;;;;;13.77;69.81;99920.00;3610304;39;20304;-67
2023/03/23 03:59:59;;;;;;;5.18;2.22;;;;;;;13.73;69.69;99913.97;3607879;39;20081;-67
2023/03/23 04:02:24;;;;;;;5.63;2.53;;;;;;;13.71;69.60;99932.19;3609652;39;20063;-67
2023/03/23 04:04:52;;;;;;;3.78;2.10;;;;;;;13.73;69.32;99929.34;3612444;39;20066;-67
2023/03/23 04:07:18;;;;;;;5.45;2.08;;;;;;;13.72;68.70;99933.03;3607095;39;20051;-67
2023/03/23 04:09:47;;;;;;;4.85;2.30;;;;;;;13.73;68.85;99919.38;3611048;39;20400;-67
2023/03/23 04:12:15;;;;;;;5.93;2.17;;;;;;;13.58;68.43;99896.47;3610373;39;20517;-67
2023/03/23 04:14:41;;;;;;;6.60;2.20;;;;;;;13.75;68.54;99921.97;3611412;39;20062;-67
2023/03/23 04:17:08;;;;;;;6.15;2.20;;;;;;;13.76;68.80;99927.22;3607727;39;20055;-67
2023/03/23 04:19:36;;;;;;;3.83;1.80;;;;;;;13.73;68.30;99929.34;3608777;39;20352;-68
2023/03/23 04:22:03;;;;;;;6.20;1.85;;;;;;;13.73;68.13;99934.75;3613542;39;20362;-67
2023/03/23 04:24:31;;;;;;;3.92;2.08;;;;;;;13.76;68.40;99934.47;3611968;39;20086;-67
2023/03/23 04:26:56;;;;;;;5.53;2.00;;;;;;;13.74;68.39;99925.66;3610457;39;20064;-67
2023/03/23 04:29:22;;;;;;;7.15;2.15;;;;;;;13.67;68.35;99942.41;3612348;39;20054;-67
2023/03/23 04:31:50;;;;;;;6.22;2.17;;;;;;;13.70;68.12;99935.84;3608823;39;20394;-67
2023/03/23 04:34:17;;;;;;;6.07;1.83;;;;;;;13.68;68.38;99946.81;3610045;39;20135;-66
2023/03/23 04:36:43;;;;;;;7.85;1.85;;;;;;;13.68;68.15;99948.66;3612291;39;20051;-67
2023/03/23 04:39:10;;;;;;;4.68;2.17;;;;;;;13.63;67.84;99940.94;3609961;39;20392;-67
2023/03/23 04:41:37;;;;;;;6.80;1.85;;;;;;;13.67;67.78;99947.81;3609022;39;20063;-67
2023/03/23 04:44:04;;;;;;;5.93;2.35;;;;;;;13.70;67.55;99949.38;3611164;39;20050;-66
2023/03/23 04:46:30;;;;;;;6.70;2.13;;;;;;;13.72;67.57;99949.25;3610136;39;20046;-67
2023/03/23 04:48:58;;;;;;;4.22;1.77;;;;;;;13.73;67.24;99946.38;3611491;39;20061;-67
2023/03/23 04:51:26;;;;;;;6.28;1.70;;;;;;;13.67;67.26;99941.56;3612321;39;20047;-67
2023/03/23 04:53:52;;;;;;;3.28;1.50;;;;;;;13.65;67.65;99951.63;3613789;39;20084;-67
2023/03/23 04:56:18;;;;;;;6.07;2.22;;;;;;;13.72;67.59;99954.66;3608466;39;20057;-67
2023/03/23 04:58:44;;;;;;;5.15;1.65;;;;;;;13.73;67.57;99945.53;3608637;39;20051;-66
2023/03/23 05:01:13;;;;;;;6.88;1.77;;;;;;;13.67;67.67;99969.44;3611018;39;20497;-67
2023/03/23 05:03:43;;;;;;;5.57;1.80;;;;;;;13.69;67.47;99962.03;3608025;39;20301;-67
2023/03/23 05:06:09;;;;;;;4.40;1.50;;;;;;;13.68;67.77;99951.38;3611274;39;20361;-67
2023/03/23 05:08:38;;;;;;;6.95;1.63;;;;;;;13.64;67.68;99961.59;3610298;39;20055;-67
2023/03/23 05:11:05;;;;;;;8.57;2.22;;;;;;;13.66;67.69;99965.00;3611046;39;20059;-67
2023/03/23 05:13:32;;;;;;;5.07;1.60;;;;;;;13.64;67.48;99958.88;3613195;39;20055;-67
2023/03/23 05:15:58;;;;;;;8.05;1.90;;;;;;;13.67;67.61;99955.06;3614176;39;20054;-67
2023/03/23 05:18:24;;;;;;;7.78;2.10;;;;;;;13.65;67.19;99949.78;3615027;39;20070;-67
2023/03/23 05:20:52;;;;;;;6.05;1.77;;;;;;;13.63;67.43;99950.91;3610823;39;20135;-67
2023/03/23 05:23:24;;;;;;;3.38;1.50;;;;;;;13.62;67.65;99955.47;3611713;39;20077;-67
2023/03/23 05:26:00;;;;;;;5.32;1.60;;;;;;;13.62;67.42;99955.47;3611113;39;20062;-67
2023/03/23 05:28:26;;;;;;;7.22;1.88;;;;;;;13.53;67.72;99961.66;3611153;39;20054;-67
2023/03/23 05:30:53;;;;;;;9.13;1.88;;;;;;;13.57;68.37;99963.09;3617321;39;20050;-67
2023/03/23 05:33:20;;;;;;;7.65;1.80;;;;;;;13.55;68.24;99978.59;3619358;39;20047;-67
2023/03/23 05:35:47;;;;;;;3.63;1.60;;;;;;;13.54;68.68;99973.31;3610240;39;20073;-66
2023/03/23 05:38:14;;;;;;;6.70;1.58;;;;;;;13.52;69.42;99964.53;3613158;39;20046;-67
2023/03/23 05:40:41;;;;;;;4.50;1.70;;;;;;;13.09;69.62;99903.44;3612259;39;20061;-67
2023/03/23 05:43:08;;;;;;;5.70;1.95;;;;;;;13.40;70.23;99970.00;3613704;39;20071;-67
2023/03/23 05:45:34;;;;;;;6.63;1.50;;;;;;;13.36;70.52;99965.00;3616265;39;20050;-66
2023/03/23 05:48:01;;;;;;;8.35;2.60;;;;;;;13.31;70.86;99972.63;3614441;39;20054;-66
2023/03/23 05:50:27;;;;;;;8.43;2.00;;;;;;;13.14;71.12;99957.88;3612141;39;20050;-67
2023/03/23 05:52:55;;;;;;;6.45;2.03;;;;;;;13.19;71.42;99980.78;3610195;39;20054;-67
2023/03/23 05:55:21;;;;;;;3.90;2.00;;;;;;;13.21;71.53;99973.41;3611302;39;20301;-67
2023/03/23 05:57:47;;;;;;;5.80;1.83;;;;;;;13.20;71.25;99970.84;3601808;39;20051;-67
2023/03/23 06:00:14;;;;;;;7.47;1.83;;;;;;;13.18;71.15;99973.66;3615359;39;20054;-69
2023/03/23 06:02:43;;;;;;;5.45;1.92;;;;;;;13.08;71.31;99955.72;3614292;39;20042;-68
2023/03/23 06:05:10;;;;;;;7.25;1.90;;;;;;;13.18;71.40;99968.25;3616888;39;20059;-68
2023/03/23 06:07:37;;;;;;;6.28;2.22;;;;;;;13.17;71.37;99963.88;3614759;39;20051;-68
2023/03/23 06:10:07;;;;;;;7.40;2.00;;;;;;;13.19;70.91;99982.63;3611116;39;20055;-68
2023/03/23 06:12:33;;;;;;;5.70;2.13;;;;;;;13.21;70.75;99970.69;3613381;39;20059;-68
2023/03/23 06:14:59;;;;;;;7.65;2.22;;;;;;;13.26;70.45;99983.84;3613844;39;20054;-68
2023/03/23 06:17:25;;;;;;;6.43;1.90;;;;;;;13.27;70.23;99984.69;3611446;39;20335;-68
2023/03/23 06:19:51;;;;;;;5.40;1.67;;;;;;;13.33;70.42;99992.25;3616869;39;20043;-68
2023/03/23 06:22:17;;;;;;;9.73;2.10;;;;;;;13.34;70.06;100007.47;3611805;39;20050;-68
2023/03/23 06:24:44;;;;;;;8.75;2.42;;;;;;;13.33;69.79;100003.91;3610572;39;20605;-68
2023/03/23 06:27:11;;;;;;;5.78;2.40;;;;;;;13.37;69.23;100009.91;3610209;39;20161;-68
2023/03/23 06:29:37;;;;;;;5.05;1.88;;;;;;;13.40;68.79;100017.72;3611730;39;20051;-68
2023/03/23 06:32:04;;;;;;;6.20;2.05;;;;;;;13.44;68.37;100019.16;3610055;39;20141;-69
2023/03/23 06:34:32;;;;;;;8.82;1.67;;;;;;;13.40;68.47;100010.47;3611394;39;20054;-69
2023/03/23 06:36:58;;;;;;;5.15;1.90;;;;;;;13.28;68.42;99994.50;3613689;39;20082;-69
2023/03/23 06:39:24;;;;;;;6.78;1.90;;;;;;;13.48;68.05;100028.75;3612338;39;20078;-69
2023/03/23 06:41:50;;;;;;;12.73;2.65;;;;;;;13.52;67.80;100032.03;3608015;39;20752;-68
2023/03/23 06:44:16;;;;;;;8.40;2.28;;;;;;;13.50;67.91;100037.53;3606173;39;20055;-69
2023/03/23 06:46:42;;;;;;;6.03;1.88;;;;;;;13.50;68.07;100042.94;3609097;39;20054;-68
2023/03/23 06:49:09;;;;;;;8.77;2.25;;;;;;;13.36;67.46;100019.84;3611180;39;20124;-70
2023/03/23 06:51:37;;;;;;;7.18;1.83;;;;;;;13.54;68.06;100039.00;3611435;39;20058;-69
2023/03/23 06:54:03;;;;;;;7.97;2.03;;;;;;;13.53;68.10;100048.06;3611105;39;20411;-70
2023/03/23 06:56:30;;;;;;;4.43;1.80;;;;;;;13.50;67.87;100059.13;3607140;39;20047;-69
2023/03/23 06:58:55;;;;;;;5.65;1.90;;;;;;;13.55;68.15;100061.47;3610234;39;20055;-70
2023/03/23 07:01:21;;;;;;;5.28;1.77;;;;;;;13.50;68.33;100056.44;3610360;39;20159;-69
2023/03/23 07:03:48;;;;;;;5.57;1.65;;;;;;;13.43;68.88;100056.13;3610418;39;20046;-69
2023/03/23 07:06:15;;;;;;;8.35;2.00;;;;;;;13.30;70.30;100054.63;3609902;39;20067;-67
2023/03/23 07:08:41;;;;;;;5.55;1.73;;;;;;;13.08;72.07;100056.41;3602431;39;20236;-67
2023/03/23 07:11:06;;;;;;;7.93;2.40;;;;;;;12.82;74.58;100042.41;3611365;39;20090;-67
2023/03/23 07:13:32;;;;;;;7.30;2.30;;;;;;;12.71;76.55;100061.31;3608636;39;20058;-64
2023/03/23 07:15:58;;;;;;;6.65;2.50;;;;;;;12.41;78.46;100037.75;3609902;39;20055;-65
2023/03/23 07:18:24;;;;;;;4.57;1.80;;;;;;;12.41;78.92;100072.81;3609219;39;20385;-66
2023/03/23 07:20:52;;;;;;;7.82;2.05;;;;;;;12.00;79.86;100028.50;3609558;39;20127;-66
2023/03/23 07:23:19;;;;;;;5.57;1.75;;;;;;;12.16;81.13;100093.66;3611695;39;20051;-66
2023/03/23 07:25:48;;;;;;;8.70;1.90;;;;;;;12.07;82.03;100094.38;3606354;39;20055;-67
2023/03/23 07:28:15;;;;;;;8.05;2.35;;;;;;;12.04;82.97;100095.47;3610835;39;20088;-67
2023/03/23 07:30:42;;;;;;;4.65;2.20;;;;;;;11.98;84.06;100097.81;3609344;39;20046;-65
2023/03/23 07:33:09;;;;;;;10.55;2.45;;;;;;;11.92;84.74;100107.22;3609174;39;20047;-65
2023/03/23 07:35:38;;;;;;;10.68;2.40;;;;;;;11.88;85.58;100107.59;3609762;39;20286;-65
2023/03/23 07:38:06;;;;;;;5.55;2.00;;;;;;;11.82;86.34;100117.81;3611077;39;20227;-67
2023/03/23 07:40:33;;;;;;;6.75;3.03;;;;;;;11.55;86.94;100056.25;3603907;39;20067;-66
2023/03/23 07:43:01;;;;;;;6.88;2.33;;;;;;;11.75;86.77;100078.91;3612129;39;20316;-69
2023/03/23 07:45:28;;;;;;;6.53;1.92;;;;;;;11.65;86.60;100096.75;3607217;39;20401;-70
2023/03/23 07:47:53;;;;;;;3.13;1.40;;;;;;;11.60;84.80;100082.78;3609329;39;20051;-69
2023/03/23 07:50:24;;;;;;;5.80;1.85;;;;;;;11.58;84.69;100103.59;3611323;39;20159;-69
2023/03/23 07:52:54;;;;;;;5.80;2.03;;;;;;;11.61;85.39;100100.69;3610521;39;20050;-71
2023/03/23 07:55:20;;;;;;;4.22;1.90;;;;;;;11.58;85.31;100091.00;3610750;39;20059;-70
2023/03/23 07:57:48;;;;;;;3.97;1.88;;;;;;;11.57;86.07;100102.72;3610140;39;20053;-71
2023/03/23 08:00:20;;;;;;;6.30;1.80;;;;;;;11.32;85.03;100063.44;3611663;39;20065;-72
2023/03/23 08:02:56;;;;;;;4.53;1.50;;;;;;;11.59;84.00;100122.31;3600055;39;20115;-72
2023/03/23 08:05:23;;;;;;;3.65;1.38;;;;;;;11.57;83.09;100118.88;3611269;39;20144;-71
2023/03/23 08:07:49;;;;;;;3.63;1.20;;;;;;;11.48;82.24;100121.41;3612618;39;20066;-71
2023/03/23 08:10:17;;;;;;;4.05;1.10;;;;;;;11.44;81.69;100149.56;3612689;39;20054;-71
2023/03/23 08:12:45;;;;;;;3.97;1.30;;;;;;;11.23;80.55;100109.88;3600254;39;20046;-70
2023/03/23 08:15:14;;;;;;;2.45;1.02;;;;;;;11.42;80.67;100151.50;3610549;39;20375;-71
2023/03/23 08:17:41;;;;;;;3.67;1.27;;;;;;;11.41;80.86;100147.09;3607079;39;20523;-71
2023/03/23 08:20:12;;;;;;;2.45;1.02;;;;;;;11.35;81.23;100138.53;3607672;39;20374;-71
2023/03/23 08:22:42;;;;;;;9.52;5.93;;;;;;;11.29;80.68;100120.16;3610273;39;20047;-69
2023/03/23 08:25:12;;;;;;;35.78;25.45;;;;;;;11.43;81.57;100153.22;3610270;39;20075;-71
2023/03/23 08:27:43;;;;;;;2.25;1.00;;;;;;;11.41;80.01;100136.34;3606689;39;20051;-72
2023/03/23 08:30:12;;;;;;;3.97;1.20;;;;;;;11.34;79.72;100134.09;3607093;39;20047;-72
2023/03/23 08:32:39;;;;;;;3.30;0.93;;;;;;;11.33;79.30;100143.16;3608898;39;20051;-73
2023/03/23 08:35:08;;;;;;;2.95;1.15;;;;;;;11.37;80.00;100130.34;3608108;39;20051;-70
2023/03/23 08:37:35;;;;;;;2.95;1.10;;;;;;;11.37;79.96;100144.63;3608879;39;20043;-71
2023/03/23 08:40:09;;;;;;;6.85;1.23;;;;;;;11.38;79.45;100130.22;3610368;39;20097;-69
2023/03/23 08:42:37;;;;;;;1.90;0.85;;;;;;;11.45;79.43;100127.94;3607767;39;20055;-70
2023/03/23 08:45:07;;;;;;;2.00;0.98;;;;;;;11.45;80.38;100122.53;3608282;39;20132;-71
2023/03/23 08:47:35;;;;;;;3.25;1.27;;;;;;;11.55;80.41;100144.22;3610883;39;20054;-72
2023/03/23 08:50:06;;;;;;;3.63;1.10;;;;;;;11.55;79.60;100146.91;3607930;39;20436;-71
2023/03/23 08:52:32;;;;;;;5.72;1.25;;;;;;;11.57;79.78;100142.25;3606371;39;20086;-71
2023/03/23 08:54:58;;;;;;;4.55;1.33;;;;;;;11.63;79.73;100149.84;3611345;39;20086;-71
2023/03/23 08:57:25;;;;;;;2.35;1.05;;;;;;;11.63;80.36;100144.47;3607519;39;20767;-70
2023/03/23 08:59:53;;;;;;;4.78;1.20;;;;;;;11.65;79.84;100160.53;3607584;39;20050;-69
2023/03/23 09:02:20;;;;;;;3.85;1.20;;;;;;;11.67;79.49;100161.25;3608289;39;20047;-68
2023/03/23 09:04:45;;;;;;;4.32;1.55;;;;;;;11.66;80.26;100164.91;3606660;39;20125;-68
2023/03/23 09:07:14;;;;;;;3.55;1.13;;;;;;;11.67;80.67;100153.16;3609747;39;20300;-69
2023/03/23 09:09:41;;;;;;;3.90;1.42;;;;;;;11.41;80.76;100079.81;3607947;39;20140;-69
2023/03/23 09:12:08;;;;;;;26.50;19.40;;;;;;;11.13;80.67;100014.69;3608288;39;20060;-68
2023/03/23 09:14:36;;;;;;;28.83;19.30;;;;;;;12.02;79.83;100145.06;3611307;39;20054;-68
2023/03/23 09:17:02;;;;;;;14.68;6.68;;;;;;;12.12;79.81;100154.16;3608389;39;20076;-67
2023/03/23 09:19:30;;;;;;;5.05;1.23;;;;;;;12.16;78.28;100161.00;3609091;39;20389;-68
2023/03/23 09:21:56;;;;;;;5.82;1.55;;;;;;;12.15;78.85;100155.75;3608987;39;20377;-68
2023/03/23 09:24:22;;;;;;;3.53;1.40;;;;;;;12.14;77.64;100160.25;3610901;39;20070;-69
2023/03/23 09:26:48;;;;;;;4.88;1.60;;;;;;;12.12;77.47;100156.00;3606869;39;20070;-70
2023/03/23 09:29:14;;;;;;;3.47;1.30;;;;;;;12.14;78.80;100154.88;3609811;39;20051;-69
2023/03/23 09:31:41;;;;;;;3.95;1.60;;;;;;;12.11;78.87;100149.72;3612783;39;20046;-68
2023/03/23 09:34:09;;;;;;;4.40;2.10;;;;;;;12.11;79.70;100151.56;3607671;39;20317;-67
2023/03/23 09:36:38;;;;;;;4.15;1.77;;;;;;;12.11;79.89;100152.41;3609334;39;20054;-67
2023/03/23 09:39:07;;;;;;;2.80;0.95;;;;;;;12.17;79.83;100162.72;3611262;39;20050;-67
2023/03/23 09:42:06;;;;;;;3.58;1.20;;;;;;;12.28;79.08;100168.13;3606683;39;20082;-69
2023/03/23 09:45:07;;;;;;;2.10;0.98;;;;;;;12.49;78.63;100159.28;3606205;39;20048;-70
2023/03/23 09:47:35;;;;;;;4.15;1.20;;;;;;;12.74;78.34;100163.53;3611320;39;20063;-73
2023/03/23 09:50:16;;;;;;;2.15;1.13;;;;;;;13.01;76.92;100165.84;3614536;39;20062;-75
2023/03/23 09:52:58;;;;;;;3.05;1.00;;;;;;;12.93;75.06;100128.69;3611676;39;20059;-74
2023/03/23 09:55:25;;;;;;;3.53;1.15;;;;;;;13.53;76.27;100156.09;3613910;39;20047;-73
2023/03/23 09:58:15;;;;;;;3.38;1.05;;;;;;;14.07;75.39;100162.28;3612268;39;20278;-72
2023/03/23 10:00:55;;;;;;;4.22;1.60;;;;;;;14.42;71.58;100172.69;3598249;39;20142;-71
2023/03/23 10:03:34;;;;;;;2.50;1.33;;;;;;;14.60;69.79;100168.41;3608804;39;20052;-70
2023/03/23 10:06:00;;;;;;;4.53;1.17;;;;;;;14.89;69.82;100161.34;3606283;39;20399;-70
2023/03/23 10:08:32;;;;;;;3.08;1.30;;;;;;;14.95;68.75;100134.59;3610964;39;20061;-70
2023/03/23 10:11:23;;;;;;;2.80;1.00;;;;;;;15.23;67.47;100169.97;3604650;39;20183;-70
2023/03/23 10:14:03;;;;;;;3.80;1.27;;;;;;;15.52;67.12;100162.69;3610151;39;20055;-70
2023/03/23 10:16:37;;;;;;;2.60;1.20;;;;;;;15.62;67.88;100132.03;3606372;39;20054;-70
2023/03/23 10:19:27;;;;;;;3.55;1.85;;;;;;;16.15;64.46;100178.47;3604594;39;20972;-69
2023/03/23 10:22:04;;;;;;;4.53;1.35;;;;;;;16.33;63.02;100180.41;3606700;39;20393;-69
2023/03/23 10:24:57;;;;;;;4.30;1.30;;;;;;;16.39;60.84;100180.66;3609054;39;20363;-70
2023/03/23 10:27:52;;;;;;;3.85;1.42;;;;;;;16.55;61.67;100192.75;3608058;39;20096;-70
2023/03/23 10:30:30;;;;;;;4.72;2.08;;;;;;;16.64;61.68;100206.28;3604035;39;20092;-70
2023/03/23 10:33:26;;;;;;;3.63;2.20;;;;;;;16.54;61.88;100191.91;3605237;39;20615;-69
2023/03/23 10:36:17;;;;;;;5.28;2.10;;;;;;;16.41;61.73;100199.53;3593481;39;20066;-68
2023/03/23 10:39:03;;;;;;;3.50;1.70;;;;;;;16.55;62.82;100196.31;3606753;39;20059;-69
2023/03/23 10:41:30;;;;;;;5.43;1.33;;;;;;;16.00;60.91;100104.03;3607264;39;20352;-68
2023/03/23 10:43:56;;;;;;;5.38;2.90;;;;;;;16.27;59.97;100197.28;3608897;39;20114;-69
2023/03/23 10:46:48;;;;;;;5.35;2.22;;;;;;;15.98;61.21;100193.66;3608808;39;20386;-68
2023/03/23 10:49:22;;;;;;;3.95;1.80;;;;;;;15.83;62.51;100189.69;3607591;39;20043;-68
2023/03/23 10:52:14;;;;;;;4.63;1.70;;;;;;;15.68;62.61;100186.53;3606220;39;20050;-68
2023/03/23 10:55:11;;;;;;;6.80;1.90;;;;;;;15.33;62.92;100132.91;3608076;39;20050;-68
2023/03/23 10:57:41;;;;;;;5.60;1.83;;;;;;;15.76;63.67;100189.41;3608129;39;20411;-69
2023/03/23 11:00:26;;;;;;;5.15;1.85;;;;;;;16.02;62.05;100189.66;3604608;39;20043;-69
2023/03/23 11:03:28;;;;;;;4.20;1.67;;;;;;;16.12;61.65;100172.50;3606393;39;20043;-70
2023/03/23 11:06:00;;;;;;;6.22;2.38;;;;;;;16.21;60.55;100160.78;3609394;39;20062;-70
2023/03/23 11:08:37;;;;;;;3.78;1.60;;;;;;;16.44;58.73;100183.81;3606274;39;20070;-70
2023/03/23 11:11:24;;;;;;;4.90;1.45;;;;;;;16.41;58.29;100186.81;3609986;39;20055;-68
2023/03/23 11:14:15;;;;;;;5.68;1.77;;;;;;;16.54;58.33;100183.78;3609886;39;20050;-69
2023/03/23 11:17:04;;;;;;;6.50;1.90;;;;;;;16.91;58.70;100185.63;3596784;39;20095;-69
2023/03/23 11:19:36;;;;;;;5.00;1.70;;;;;;;17.10;57.11;100171.09;3611720;39;20114;-69
2023/03/23 11:22:05;;;;;;;3.83;1.60;;;;;;;16.96;56.98;100177.88;3609419;39;20132;-69
2023/03/23 11:24:40;;;;;;;5.03;1.77;;;;;;;17.13;57.35;100189.78;3607002;39;20428;-69
2023/03/23 11:27:09;;;;;;;6.50;1.88;;;;;;;17.27;56.13;100172.97;3608165;39;20346;-69
2023/03/23 11:29:46;;;;;;;5.78;1.52;;;;;;;17.51;55.60;100204.13;3607853;39;20055;-69
2023/03/23 11:32:17;;;;;;;4.85;1.52;;;;;;;17.29;55.29;100203.53;3604942;39;20131;-68
2023/03/23 11:34:47;;;;;;;5.05;1.70;;;;;;;16.97;55.56;100205.88;3609019;39;20062;-69
2023/03/23 11:37:36;;;;;;;4.70;1.35;;;;;;;16.83;57.80;100204.53;3610114;39;20066;-69
2023/03/23 11:40:27;;;;;;;3.50;1.33;;;;;;;16.60;57.91;100204.03;3611482;39;20385;-70
2023/03/23 11:42:53;;;;;;;7.75;4.25;;;;;;;16.63;58.52;100206.44;3611377;39;20070;-69
2023/03/23 11:45:40;;;;;;;3.67;1.50;;;;;;;16.85;58.89;100208.81;3613363;39;20048;-69
2023/03/23 11:48:35;;;;;;;2.97;1.48;;;;;;;16.79;57.83;100198.56;3607476;39;20112;-68
2023/03/23 11:51:41;;;;;;;4.68;1.58;;;;;;;17.48;57.15;100210.72;3607572;39;20413;-68